createdAt,value
2017-11-05T00:00:32.887Z,0
2017-11-05T00:01:33.218Z,0
2017-11-05T00:02:32.882Z,0
2017-11-05T00:03:32.509Z,0
2017-11-05T00:04:32.840Z,0
2017-11-05T00:05:32.825Z,0
2017-11-05T00:06:33.156Z,0
2017-11-05T00:07:32.801Z,0
2017-11-05T00:08:33.162Z,0
2017-11-05T00:09:32.778Z,0
2017-11-05T00:10:32.430Z,0
2017-11-05T00:11:32.758Z,0
2017-11-05T00:12:32.413Z,0
2017-11-05T00:13:32.730Z,0
2017-11-05T00:14:32.713Z,0
2017-11-05T00:15:32.703Z,0
2017-11-05T00:16:32.368Z,0
2017-11-05T00:17:32.357Z,0
2017-11-05T00:18:32.710Z,0
2017-11-05T00:19:32.656Z,0
2017-11-05T00:20:32.638Z,0
2017-11-05T00:21:32.989Z,0
2017-11-05T00:22:32.978Z,0
2017-11-05T00:23:32.945Z,0
2017-11-05T00:24:32.944Z,0
2017-11-05T00:25:32.579Z,0
2017-11-05T00:26:32.921Z,0
2017-11-05T00:27:32.932Z,0
2017-11-05T00:28:32.561Z,0
2017-11-05T00:29:32.529Z,0
2017-11-05T00:30:32.540Z,0
2017-11-05T00:31:32.509Z,0
2017-11-05T00:32:32.840Z,0
2017-11-05T00:33:32.486Z,0
2017-11-05T00:34:32.807Z,0
2017-11-05T00:35:32.118Z,0
2017-11-05T00:36:32.108Z,0
2017-11-05T00:37:32.775Z,0
2017-11-05T00:38:32.083Z,0
2017-11-05T00:39:32.088Z,0
2017-11-05T00:40:32.732Z,0
2017-11-05T00:41:32.062Z,0
2017-11-05T00:42:35.385Z,0
2017-11-05T00:43:32.696Z,0
2017-11-05T00:44:32.363Z,0
2017-11-05T00:45:32.014Z,0
2017-11-05T00:46:32.681Z,0
2017-11-05T00:47:31.968Z,0
2017-11-05T00:48:31.966Z,0
2017-11-05T00:49:31.951Z,0
2017-11-05T00:50:31.946Z,0
2017-11-05T00:51:32.274Z,0
2017-11-05T00:52:32.248Z,0
2017-11-05T00:53:32.599Z,0
2017-11-05T00:54:32.242Z,0
2017-11-05T00:55:32.219Z,0
2017-11-05T00:56:32.537Z,0
2017-11-05T00:57:32.525Z,0
2017-11-05T00:58:32.519Z,0
2017-11-05T00:59:31.851Z,0
2017-11-05T01:00:32.151Z,0
2017-11-05T01:01:32.149Z,0
2017-11-05T01:02:32.134Z,0
2017-11-05T01:03:32.466Z,0
2017-11-05T01:04:32.102Z,0
2017-11-05T01:05:32.109Z,0
2017-11-05T01:06:31.738Z,0
2017-11-05T01:07:32.065Z,0
2017-11-05T01:08:32.061Z,0
2017-11-05T01:09:32.382Z,0
2017-11-05T01:10:31.725Z,0
2017-11-05T01:11:32.016Z,0
2017-11-05T01:12:32.683Z,0
2017-11-05T01:13:31.991Z,0
2017-11-05T01:14:31.652Z,0
2017-11-05T01:15:31.969Z,0
2017-11-05T01:16:31.617Z,0
2017-11-05T01:17:31.606Z,0
2017-11-05T01:18:31.928Z,0
2017-11-05T01:19:32.302Z,0
2017-11-05T01:20:31.921Z,0
2017-11-05T01:21:31.905Z,0
2017-11-05T01:22:31.883Z,0
2017-11-05T01:23:31.876Z,0
2017-11-05T01:24:31.857Z,0
2017-11-05T01:25:31.845Z,0
2017-11-05T01:26:31.518Z,0
2017-11-05T01:27:31.482Z,0
2017-11-05T01:28:31.815Z,0
2017-11-05T01:29:31.800Z,0
2017-11-05T01:30:31.799Z,0
2017-11-05T01:31:31.442Z,0
2017-11-05T01:32:31.759Z,0
2017-11-05T01:33:32.105Z,0
2017-11-05T01:34:31.419Z,0
2017-11-05T01:35:31.390Z,0
2017-11-05T01:36:31.725Z,0
2017-11-05T01:37:31.699Z,0
2017-11-05T01:38:31.691Z,0
2017-11-05T01:39:31.675Z,0
2017-11-05T01:40:31.680Z,0
2017-11-05T01:41:31.649Z,0
2017-11-05T01:42:31.636Z,0
2017-11-05T01:43:31.965Z,0
2017-11-05T01:44:31.974Z,0
2017-11-05T01:45:31.271Z,0
2017-11-05T01:46:31.250Z,0
2017-11-05T01:47:31.240Z,0
2017-11-05T01:48:31.565Z,0
2017-11-05T01:49:31.606Z,0
2017-11-05T01:50:31.543Z,0
2017-11-05T01:51:31.551Z,0
2017-11-05T01:52:31.203Z,0
2017-11-05T01:53:31.166Z,0
2017-11-05T01:54:31.154Z,0
2017-11-05T01:55:31.492Z,0
2017-11-05T01:56:31.831Z,0
2017-11-05T01:57:31.475Z,0
2017-11-05T01:58:31.443Z,0
2017-11-05T01:59:31.090Z,0
2017-11-05T02:00:31.432Z,0
2017-11-05T02:01:31.416Z,0
2017-11-05T02:02:31.399Z,0
2017-11-05T02:03:31.409Z,0
2017-11-05T02:04:31.375Z,0
2017-11-05T02:05:31.357Z,0
2017-11-05T02:06:31.696Z,0
2017-11-05T02:07:31.336Z,0
2017-11-05T02:08:31.662Z,0
2017-11-05T02:09:31.320Z,0
2017-11-05T02:10:30.959Z,0
2017-11-05T02:11:30.967Z,0
2017-11-05T02:12:31.288Z,0
2017-11-05T02:13:31.600Z,0
2017-11-05T02:14:30.928Z,0
2017-11-05T02:15:31.260Z,0
2017-11-05T02:16:30.888Z,0
2017-11-05T02:17:31.220Z,0
2017-11-05T02:18:31.199Z,0
2017-11-05T02:19:31.189Z,0
2017-11-05T02:20:31.176Z,0
2017-11-05T02:21:31.506Z,0
2017-11-05T02:22:31.512Z,0
2017-11-05T02:23:31.144Z,0
2017-11-05T02:24:30.787Z,0
2017-11-05T02:25:31.795Z,0
2017-11-05T02:26:31.104Z,0
2017-11-05T02:27:31.781Z,0
2017-11-05T02:28:31.445Z,0
2017-11-05T02:29:30.728Z,0
2017-11-05T02:30:31.412Z,0
2017-11-05T02:31:30.709Z,0
2017-11-05T02:32:30.690Z,0
2017-11-05T02:33:31.021Z,0
2017-11-05T02:34:31.018Z,0
2017-11-05T02:35:31.008Z,0
2017-11-05T02:36:31.033Z,0
2017-11-05T02:37:30.995Z,0
2017-11-05T02:38:30.960Z,0
2017-11-05T02:39:30.611Z,0
2017-11-05T02:40:30.937Z,0
2017-11-05T02:41:30.945Z,0
2017-11-05T02:42:30.569Z,0
2017-11-05T02:43:30.900Z,0
2017-11-05T02:44:31.241Z,0
2017-11-05T02:45:30.877Z,0
2017-11-05T02:46:30.874Z,0
2017-11-05T02:47:30.525Z,0
2017-11-05T02:48:31.185Z,0
2017-11-05T02:49:30.825Z,0
2017-11-05T02:50:30.821Z,0
2017-11-05T02:51:30.799Z,0
2017-11-05T02:52:31.157Z,0
2017-11-05T02:53:30.780Z,0
2017-11-05T02:54:30.425Z,0
2017-11-05T02:55:31.091Z,0
2017-11-05T02:56:30.758Z,0
2017-11-05T02:57:30.413Z,0
2017-11-05T02:58:31.054Z,0
2017-11-05T02:59:30.700Z,0
2017-11-05T03:00:30.727Z,0
2017-11-05T03:01:30.687Z,0
2017-11-05T03:02:31.048Z,0
2017-11-05T03:03:30.996Z,0
2017-11-05T03:04:30.650Z,0
2017-11-05T03:05:30.630Z,0
2017-11-05T03:06:30.967Z,0
2017-11-05T03:07:30.947Z,0
2017-11-05T03:08:30.593Z,0
2017-11-05T03:09:30.245Z,0
2017-11-05T03:10:30.572Z,0
2017-11-05T03:11:30.898Z,0
2017-11-05T03:12:30.204Z,0
2017-11-05T03:13:30.872Z,0
2017-11-05T03:14:30.867Z,0
2017-11-05T03:15:30.509Z,0
2017-11-05T03:16:30.855Z,0
2017-11-05T03:17:31.173Z,0
2017-11-05T03:18:30.471Z,0
2017-11-05T03:19:30.122Z,0
2017-11-05T03:20:30.447Z,0
2017-11-05T03:21:30.479Z,0
2017-11-05T03:22:30.426Z,0
2017-11-05T03:23:30.421Z,0
2017-11-05T03:24:30.428Z,0
2017-11-05T03:25:30.055Z,0
2017-11-05T03:26:30.375Z,0
2017-11-05T03:27:30.394Z,0
2017-11-05T03:28:30.370Z,0
2017-11-05T03:29:29.998Z,0
2017-11-05T03:30:30.673Z,0
2017-11-05T03:31:30.316Z,0
2017-11-05T03:32:30.306Z,0
2017-11-05T03:33:29.951Z,0
2017-11-05T03:34:30.622Z,0
2017-11-05T03:35:30.265Z,0
2017-11-05T03:36:30.258Z,0
2017-11-05T03:37:32.641Z,0
2017-11-05T03:38:29.900Z,0
2017-11-05T03:39:30.577Z,0
2017-11-05T03:40:30.205Z,0
2017-11-05T03:41:29.873Z,0
2017-11-05T03:42:29.840Z,0
2017-11-05T03:43:30.193Z,0
2017-11-05T03:44:30.182Z,0
2017-11-05T03:45:29.801Z,0
2017-11-05T03:46:30.131Z,0
2017-11-05T03:47:30.137Z,0
2017-11-05T03:48:30.111Z,0
2017-11-05T03:49:30.107Z,0
2017-11-05T03:50:29.757Z,0
2017-11-05T03:51:30.074Z,0
2017-11-05T03:52:29.735Z,0
2017-11-05T03:53:30.062Z,0
2017-11-05T03:54:30.034Z,0
2017-11-05T03:55:29.681Z,0
2017-11-05T03:56:30.027Z,0
2017-11-05T03:57:29.665Z,0
2017-11-05T03:58:29.984Z,0
2017-11-05T03:59:29.979Z,0
2017-11-05T04:00:29.974Z,0
2017-11-05T04:01:29.947Z,0
2017-11-05T04:02:29.946Z,0
2017-11-05T04:03:30.278Z,0
2017-11-05T04:04:30.661Z,0
2017-11-05T04:05:29.906Z,0
2017-11-05T04:06:30.565Z,0
2017-11-05T04:07:29.900Z,0
2017-11-05T04:08:29.865Z,0
2017-11-05T04:09:29.849Z,0
2017-11-05T04:10:29.497Z,0
2017-11-05T04:11:29.830Z,0
2017-11-05T04:12:29.480Z,0
2017-11-05T04:13:29.460Z,0
2017-11-05T04:14:29.467Z,0
2017-11-05T04:15:30.134Z,0
2017-11-05T04:16:29.781Z,0
2017-11-05T04:17:29.749Z,0
2017-11-05T04:18:30.084Z,0
2017-11-05T04:19:29.384Z,0
2017-11-05T04:20:29.711Z,0
2017-11-05T04:21:29.393Z,0
2017-11-05T04:22:30.026Z,0
2017-11-05T04:23:29.682Z,0
2017-11-05T04:24:29.662Z,0
2017-11-05T04:25:29.323Z,0
2017-11-05T04:26:29.637Z,0
2017-11-05T04:27:29.624Z,0
2017-11-05T04:28:29.274Z,0
2017-11-05T04:29:29.602Z,0
2017-11-05T04:30:29.253Z,0
2017-11-05T04:31:29.593Z,0
2017-11-05T04:32:29.261Z,0
2017-11-05T04:33:29.891Z,0
2017-11-05T04:34:29.895Z,0
2017-11-05T04:35:29.865Z,0
2017-11-05T04:36:29.514Z,0
2017-11-05T04:37:29.161Z,0
2017-11-05T04:38:29.495Z,0
2017-11-05T04:39:29.512Z,0
2017-11-05T04:40:29.465Z,0
2017-11-05T04:41:29.841Z,0
2017-11-05T04:42:29.443Z,0
2017-11-05T04:43:29.785Z,0
2017-11-05T04:44:29.418Z,0
2017-11-05T04:45:29.403Z,0
2017-11-05T04:46:29.083Z,0
2017-11-05T04:47:29.391Z,0
2017-11-05T04:48:29.369Z,0
2017-11-05T04:49:29.713Z,0
2017-11-05T04:50:33.454Z,0
2017-11-05T04:51:29.333Z,0
2017-11-05T04:52:29.322Z,0
2017-11-05T04:53:29.330Z,0
2017-11-05T04:54:29.303Z,0
2017-11-05T04:55:28.964Z,0
2017-11-05T04:56:29.273Z,0
2017-11-05T04:57:29.262Z,0
2017-11-05T04:58:28.908Z,0
2017-11-05T04:59:29.268Z,0
2017-11-05T05:00:29.281Z,0
2017-11-05T05:01:28.869Z,0
2017-11-05T05:02:29.304Z,0
2017-11-05T05:03:29.526Z,0
2017-11-05T05:04:29.881Z,0
2017-11-05T05:05:29.499Z,0
2017-11-05T05:06:29.837Z,0
2017-11-05T05:07:29.139Z,0
2017-11-05T05:08:29.479Z,0
2017-11-05T05:09:29.125Z,0
2017-11-05T05:10:29.463Z,0
2017-11-05T05:11:28.757Z,0
2017-11-05T05:12:29.433Z,0
2017-11-05T05:13:28.734Z,0
2017-11-05T05:14:29.076Z,0
2017-11-05T05:15:28.709Z,0
2017-11-05T05:16:29.370Z,0
2017-11-05T05:17:29.017Z,0
2017-11-05T05:18:29.345Z,0
2017-11-05T05:19:28.993Z,0
2017-11-05T05:20:29.009Z,0
2017-11-05T05:21:29.327Z,0
2017-11-05T05:22:29.676Z,0
2017-11-05T05:23:29.298Z,0
2017-11-05T05:24:28.593Z,0
2017-11-05T05:25:28.933Z,0
2017-11-05T05:26:28.909Z,0
2017-11-05T05:27:28.895Z,0
2017-11-05T05:28:28.886Z,0
2017-11-05T05:29:28.873Z,0
2017-11-05T05:30:29.203Z,0
2017-11-05T05:31:29.573Z,0
2017-11-05T05:32:29.179Z,0
2017-11-05T05:33:29.189Z,0
2017-11-05T05:34:29.156Z,0
2017-11-05T05:35:28.469Z,0
2017-11-05T05:36:28.802Z,0
2017-11-05T05:37:28.440Z,0
2017-11-05T05:38:29.451Z,4
2017-11-05T05:39:29.127Z,4
2017-11-05T05:40:28.745Z,0
2017-11-05T05:41:29.081Z,4
2017-11-05T05:42:28.721Z,4
2017-11-05T05:43:28.707Z,4
2017-11-05T05:44:29.038Z,8
2017-11-05T05:45:29.030Z,4
2017-11-05T05:46:28.686Z,8
2017-11-05T05:47:29.020Z,8
2017-11-05T05:48:28.331Z,12
2017-11-05T05:49:28.995Z,16
2017-11-05T05:50:28.634Z,16
2017-11-05T05:51:28.611Z,16
2017-11-05T05:52:29.312Z,20
2017-11-05T05:53:28.925Z,24
2017-11-05T05:54:28.592Z,28
2017-11-05T05:55:28.563Z,32
2017-11-05T05:56:28.210Z,40
2017-11-05T05:57:28.215Z,44
2017-11-05T05:58:28.188Z,52
2017-11-05T05:59:28.875Z,56
2017-11-05T06:00:28.176Z,64
2017-11-05T06:01:29.173Z,76
2017-11-05T06:02:28.839Z,88
2017-11-05T06:03:28.808Z,100
2017-11-05T06:04:28.114Z,112
2017-11-05T06:05:28.452Z,124
2017-11-05T06:06:28.431Z,136
2017-11-05T06:07:28.418Z,156
2017-11-05T06:08:28.405Z,168
2017-11-05T06:09:28.398Z,188
2017-11-05T06:10:28.045Z,204
2017-11-05T06:11:28.396Z,228
2017-11-05T06:12:28.436Z,256
2017-11-05T06:13:28.358Z,276
2017-11-05T06:14:28.694Z,288
2017-11-05T06:15:28.666Z,300
2017-11-05T06:16:28.669Z,320
2017-11-05T06:17:28.302Z,344
2017-11-05T06:18:28.289Z,368
2017-11-05T06:19:27.936Z,396
2017-11-05T06:20:28.261Z,424
2017-11-05T06:21:27.908Z,452
2017-11-05T06:22:28.234Z,480
2017-11-05T06:23:27.889Z,516
2017-11-05T06:24:28.219Z,552
2017-11-05T06:25:28.218Z,568
2017-11-05T06:26:28.524Z,580
2017-11-05T06:27:28.179Z,596
2017-11-05T06:28:28.165Z,592
2017-11-05T06:29:27.812Z,576
2017-11-05T06:30:27.801Z,556
2017-11-05T06:31:28.127Z,528
2017-11-05T06:32:28.151Z,512
2017-11-05T06:33:28.461Z,512
2017-11-05T06:34:28.091Z,524
2017-11-05T06:35:28.431Z,544
2017-11-05T06:36:28.067Z,552
2017-11-05T06:37:28.401Z,528
2017-11-05T06:38:28.384Z,508
2017-11-05T06:39:27.691Z,496
2017-11-05T06:40:28.708Z,496
2017-11-05T06:41:28.031Z,520
2017-11-05T06:42:28.341Z,584
2017-11-05T06:43:27.644Z,648
2017-11-05T06:44:28.343Z,700
2017-11-05T06:45:27.997Z,740
2017-11-05T06:46:27.608Z,824
2017-11-05T06:47:27.598Z,920
2017-11-05T06:48:27.938Z,964
2017-11-05T06:49:27.925Z,1016
2017-11-05T06:50:27.562Z,1052
2017-11-05T06:51:27.549Z,1072
2017-11-05T06:52:28.216Z,1060
2017-11-05T06:53:27.868Z,1040
2017-11-05T06:54:27.515Z,1032
2017-11-05T06:55:27.853Z,1036
2017-11-05T06:56:27.491Z,1112
2017-11-05T06:57:28.162Z,1228
2017-11-05T06:58:28.161Z,1404
2017-11-05T06:59:27.456Z,1548
2017-11-05T07:00:27.472Z,1652
2017-11-05T07:01:27.774Z,1736
2017-11-05T07:02:27.762Z,1816
2017-11-05T07:03:27.755Z,1824
2017-11-05T07:04:27.740Z,1832
2017-11-05T07:05:27.733Z,1884
2017-11-05T07:06:28.071Z,1952
2017-11-05T07:07:28.043Z,2000
2017-11-05T07:08:27.693Z,2044
2017-11-05T07:09:27.340Z,2116
2017-11-05T07:10:27.675Z,2176
2017-11-05T07:11:27.665Z,2188
2017-11-05T07:12:27.670Z,2180
2017-11-05T07:13:27.641Z,2124
2017-11-05T07:14:27.967Z,2048
2017-11-05T07:15:27.958Z,1956
2017-11-05T07:16:27.644Z,1880
2017-11-05T07:17:27.599Z,1832
2017-11-05T07:18:27.274Z,1840
2017-11-05T07:19:27.919Z,1900
2017-11-05T07:20:27.564Z,2004
2017-11-05T07:21:27.214Z,2120
2017-11-05T07:22:27.205Z,2208
2017-11-05T07:23:27.209Z,2300
2017-11-05T07:24:27.581Z,2344
2017-11-05T07:25:27.519Z,2368
2017-11-05T07:26:27.168Z,2392
2017-11-05T07:27:27.506Z,2428
2017-11-05T07:28:27.127Z,2492
2017-11-05T07:29:27.465Z,2524
2017-11-05T07:30:27.116Z,2520
2017-11-05T07:31:27.458Z,2504
2017-11-05T07:32:27.117Z,2524
2017-11-05T07:33:27.386Z,2540
2017-11-05T07:34:27.074Z,2572
2017-11-05T07:35:27.405Z,2564
2017-11-05T07:36:27.721Z,2588
2017-11-05T07:37:27.714Z,2664
2017-11-05T07:38:27.397Z,2724
2017-11-05T07:39:27.346Z,2772
2017-11-05T07:40:27.358Z,2812
2017-11-05T07:41:27.375Z,2884
2017-11-05T07:42:27.401Z,2972
2017-11-05T07:43:26.964Z,3052
2017-11-05T07:44:26.990Z,3068
2017-11-05T07:45:26.946Z,3116
2017-11-05T07:46:27.348Z,3140
2017-11-05T07:47:26.923Z,3124
2017-11-05T07:48:27.597Z,3056
2017-11-05T07:49:27.251Z,3052
2017-11-05T07:50:27.322Z,3076
2017-11-05T07:51:27.220Z,3164
2017-11-05T07:52:27.241Z,3296
2017-11-05T07:53:27.541Z,3504
2017-11-05T07:54:26.850Z,3652
2017-11-05T07:55:27.180Z,3704
2017-11-05T07:56:26.864Z,3684
2017-11-05T07:57:27.182Z,3692
2017-11-05T07:58:27.228Z,3764
2017-11-05T07:59:26.801Z,3844
2017-11-05T08:00:27.142Z,3856
2017-11-05T08:01:27.114Z,3876
2017-11-05T08:02:27.125Z,3976
2017-11-05T08:03:26.756Z,4060
2017-11-05T08:04:27.093Z,4048
2017-11-05T08:05:26.734Z,4112
2017-11-05T08:06:26.721Z,4188
2017-11-05T08:07:26.716Z,4272
2017-11-05T08:08:27.045Z,4380
2017-11-05T08:09:27.373Z,4532
2017-11-05T08:10:26.723Z,4644
2017-11-05T08:11:27.037Z,4752
2017-11-05T08:12:26.663Z,4696
2017-11-05T08:13:26.653Z,4520
2017-11-05T08:14:26.984Z,4380
2017-11-05T08:15:26.974Z,4272
2017-11-05T08:16:26.983Z,4364
2017-11-05T08:17:26.614Z,4496
2017-11-05T08:18:26.629Z,4856
2017-11-05T08:19:26.596Z,5440
2017-11-05T08:20:27.263Z,6028
2017-11-05T08:21:26.934Z,6488
2017-11-05T08:22:26.561Z,6796
2017-11-05T08:23:26.896Z,6476
2017-11-05T08:24:26.931Z,6244
2017-11-05T08:25:26.537Z,6216
2017-11-05T08:26:26.879Z,5716
2017-11-05T08:27:26.879Z,5228
2017-11-05T08:28:27.197Z,4820
2017-11-05T08:29:26.859Z,4588
2017-11-05T08:30:26.854Z,4436
2017-11-05T08:31:26.478Z,4268
2017-11-05T08:32:26.813Z,3984
2017-11-05T08:33:27.157Z,3680
2017-11-05T08:34:27.477Z,3400
2017-11-05T08:35:26.782Z,3332
2017-11-05T08:36:26.785Z,3348
2017-11-05T08:37:26.794Z,3400
2017-11-05T08:38:26.753Z,3392
2017-11-05T08:39:27.123Z,3360
2017-11-05T08:40:27.077Z,3500
2017-11-05T08:41:26.409Z,3712
2017-11-05T08:42:26.721Z,3948
2017-11-05T08:43:26.371Z,4072
2017-11-05T08:44:26.379Z,4200
2017-11-05T08:45:27.369Z,4192
2017-11-05T08:46:27.028Z,3848
2017-11-05T08:47:26.343Z,3436
2017-11-05T08:48:26.690Z,3140
2017-11-05T08:49:26.690Z,2944
2017-11-05T08:50:26.662Z,2776
2017-11-05T08:51:26.638Z,2680
2017-11-05T08:52:26.987Z,2684
2017-11-05T08:53:26.283Z,2692
2017-11-05T08:54:26.624Z,2664
2017-11-05T08:55:26.607Z,2648
2017-11-05T08:56:26.669Z,2608
2017-11-05T08:57:26.921Z,2552
2017-11-05T08:58:26.912Z,2496
2017-11-05T08:59:26.918Z,2312
2017-11-05T09:00:26.556Z,2228
2017-11-05T09:01:26.207Z,2184
2017-11-05T09:02:26.879Z,2160
2017-11-05T09:03:26.882Z,2132
2017-11-05T09:04:32.437Z,2172
2017-11-05T09:05:26.510Z,2532
2017-11-05T09:06:26.525Z,2956
2017-11-05T09:07:26.488Z,3584
2017-11-05T09:08:26.493Z,4616
2017-11-05T09:09:26.475Z,5464
2017-11-05T09:10:26.467Z,5884
2017-11-05T09:11:26.113Z,6392
2017-11-05T09:12:26.106Z,6872
2017-11-05T09:13:26.092Z,7520
2017-11-05T09:14:26.771Z,8520
2017-11-05T09:15:26.780Z,8908
2017-11-05T09:16:26.068Z,8840
2017-11-05T09:17:26.422Z,8256
2017-11-05T09:18:26.049Z,7636
2017-11-05T09:19:26.042Z,7904
2017-11-05T09:20:26.716Z,8120
2017-11-05T09:21:26.028Z,7832
2017-11-05T09:22:26.360Z,7924
2017-11-05T09:23:26.349Z,8444
2017-11-05T09:24:25.999Z,9024
2017-11-05T09:25:26.332Z,9228
2017-11-05T09:26:26.671Z,8716
2017-11-05T09:27:26.313Z,8104
2017-11-05T09:28:26.309Z,7692
2017-11-05T09:29:26.299Z,7464
2017-11-05T09:30:26.975Z,6832
2017-11-05T09:31:26.627Z,6416
2017-11-05T09:32:26.274Z,6192
2017-11-05T09:33:25.927Z,6300
2017-11-05T09:34:25.922Z,6536
2017-11-05T09:35:26.257Z,6712
2017-11-05T09:36:25.919Z,7116
2017-11-05T09:37:26.254Z,7420
2017-11-05T09:38:26.588Z,7408
2017-11-05T09:39:26.571Z,7232
2017-11-05T09:40:26.226Z,7312
2017-11-05T09:41:26.249Z,7688
2017-11-05T09:42:25.862Z,7968
2017-11-05T09:43:26.538Z,8352
2017-11-05T09:44:25.876Z,8376
2017-11-05T09:45:26.521Z,8232
2017-11-05T09:46:25.834Z,8204
2017-11-05T09:47:26.866Z,8216
2017-11-05T09:48:26.498Z,8008
2017-11-05T09:49:26.503Z,7932
2017-11-05T09:50:26.144Z,7836
2017-11-05T09:51:26.137Z,7744
2017-11-05T09:52:25.793Z,7628
2017-11-05T09:53:26.125Z,7044
2017-11-05T09:54:26.474Z,6524
2017-11-05T09:55:26.452Z,6748
2017-11-05T09:56:26.106Z,7292
2017-11-05T09:57:25.759Z,7280
2017-11-05T09:58:25.758Z,6900
2017-11-05T09:59:26.083Z,7072
2017-11-05T10:00:25.743Z,6964
2017-11-05T10:01:26.093Z,6760
2017-11-05T10:02:26.419Z,6540
2017-11-05T10:03:26.085Z,6620
2017-11-05T10:04:26.055Z,7004
2017-11-05T10:05:26.059Z,7212
2017-11-05T10:06:26.041Z,6888
2017-11-05T10:07:26.057Z,6564
2017-11-05T10:08:26.394Z,6156
2017-11-05T10:09:26.031Z,5880
2017-11-05T10:10:26.016Z,5840
2017-11-05T10:11:26.349Z,5444
2017-11-05T10:12:25.662Z,5124
2017-11-05T10:13:25.998Z,5092
2017-11-05T10:14:25.652Z,5200
2017-11-05T10:15:25.645Z,5488
2017-11-05T10:16:25.983Z,5944
2017-11-05T10:17:26.331Z,6364
2017-11-05T10:18:25.623Z,6532
2017-11-05T10:19:26.294Z,6704
2017-11-05T10:20:25.613Z,6776
2017-11-05T10:21:26.256Z,6500
2017-11-05T10:22:25.957Z,6384
2017-11-05T10:23:26.274Z,6316
2017-11-05T10:24:26.633Z,6212
2017-11-05T10:25:25.777Z,6320
2017-11-05T10:26:26.247Z,6344
2017-11-05T10:27:25.563Z,6384
2017-11-05T10:28:25.904Z,6484
2017-11-05T10:29:25.926Z,6476
2017-11-05T10:30:26.233Z,6692
2017-11-05T10:31:25.897Z,7436
2017-11-05T10:32:26.216Z,7848
2017-11-05T10:33:25.524Z,7700
2017-11-05T10:34:25.856Z,7412
2017-11-05T10:35:25.510Z,6696
2017-11-05T10:36:25.847Z,6216
2017-11-05T10:37:26.202Z,5824
2017-11-05T10:38:25.491Z,5688
2017-11-05T10:39:25.825Z,5912
2017-11-05T10:40:25.477Z,6168
2017-11-05T10:41:25.483Z,6288
2017-11-05T10:42:25.804Z,6516
2017-11-05T10:43:25.472Z,6644
2017-11-05T10:44:25.458Z,6684
2017-11-05T10:45:25.450Z,6772
2017-11-05T10:46:25.438Z,7048
2017-11-05T10:47:25.780Z,7400
2017-11-05T10:48:25.422Z,7820
2017-11-05T10:49:25.420Z,8192
2017-11-05T10:50:26.094Z,8276
2017-11-05T10:51:26.090Z,7752
2017-11-05T10:52:25.417Z,7040
2017-11-05T10:53:26.080Z,6092
2017-11-05T10:54:25.750Z,5520
2017-11-05T10:55:25.743Z,5520
2017-11-05T10:56:26.052Z,5676
2017-11-05T10:57:25.377Z,5632
2017-11-05T10:58:26.053Z,5384
2017-11-05T10:59:25.386Z,4828
2017-11-05T11:00:25.364Z,4476
2017-11-05T11:01:25.697Z,4392
2017-11-05T11:02:25.674Z,4492
2017-11-05T11:03:25.342Z,4868
2017-11-05T11:04:26.007Z,5040
2017-11-05T11:05:25.666Z,5164
2017-11-05T11:06:25.311Z,5140
2017-11-05T11:07:25.642Z,5004
2017-11-05T11:08:25.643Z,4860
2017-11-05T11:09:25.629Z,4824
2017-11-05T11:10:25.976Z,4796
2017-11-05T11:11:25.637Z,4832
2017-11-05T11:12:25.281Z,4964
2017-11-05T11:13:25.263Z,5100
2017-11-05T11:14:25.983Z,5092
2017-11-05T11:15:25.959Z,5020
2017-11-05T11:16:25.605Z,4908
2017-11-05T11:17:25.579Z,4712
2017-11-05T11:18:25.925Z,4568
2017-11-05T11:19:25.561Z,4464
2017-11-05T11:20:25.555Z,4344
2017-11-05T11:21:25.216Z,4328
2017-11-05T11:22:25.552Z,4392
2017-11-05T11:23:25.194Z,4372
2017-11-05T11:24:25.879Z,4252
2017-11-05T11:25:25.521Z,4068
2017-11-05T11:26:25.516Z,4008
2017-11-05T11:27:25.561Z,3992
2017-11-05T11:28:25.503Z,3976
2017-11-05T11:29:25.853Z,3948
2017-11-05T11:30:25.490Z,3948
2017-11-05T11:31:25.823Z,3892
2017-11-05T11:32:25.134Z,3796
2017-11-05T11:33:25.803Z,3808
2017-11-05T11:34:25.807Z,3872
2017-11-05T11:35:26.134Z,3900
2017-11-05T11:36:25.802Z,3916
2017-11-05T11:37:25.437Z,3944
2017-11-05T11:38:25.436Z,4020
2017-11-05T11:39:25.083Z,4128
2017-11-05T11:40:25.414Z,4184
2017-11-05T11:41:25.067Z,4024
2017-11-05T11:42:25.092Z,3820
2017-11-05T11:43:25.733Z,3740
2017-11-05T11:44:25.396Z,3724
2017-11-05T11:45:25.054Z,3840
2017-11-05T11:46:25.714Z,4128
2017-11-05T11:47:25.364Z,4480
2017-11-05T11:48:25.709Z,4760
2017-11-05T11:49:25.688Z,4908
2017-11-05T11:50:25.685Z,5040
2017-11-05T11:51:25.341Z,5288
2017-11-05T11:52:25.666Z,5684
2017-11-05T11:53:24.979Z,6008
2017-11-05T11:54:25.651Z,6180
2017-11-05T11:55:25.303Z,6204
2017-11-05T11:56:25.337Z,6312
2017-11-05T11:57:24.956Z,6532
2017-11-05T11:58:25.619Z,6784
2017-11-05T11:59:25.281Z,6764
2017-11-05T12:00:25.276Z,6720
2017-11-05T12:01:25.601Z,6768
2017-11-05T12:02:24.925Z,6868
2017-11-05T12:03:24.905Z,7064
2017-11-05T12:04:25.238Z,7264
2017-11-05T12:05:25.570Z,7404
2017-11-05T12:06:24.903Z,7536
2017-11-05T12:07:25.263Z,7752
2017-11-05T12:08:25.227Z,7916
2017-11-05T12:09:25.200Z,8148
2017-11-05T12:10:24.868Z,8260
2017-11-05T12:11:25.186Z,8244
2017-11-05T12:12:24.841Z,7920
2017-11-05T12:13:24.829Z,7368
2017-11-05T12:14:25.511Z,7000
2017-11-05T12:15:25.179Z,6764
2017-11-05T12:16:25.491Z,6480
2017-11-05T12:17:25.150Z,6120
2017-11-05T12:18:25.485Z,5788
2017-11-05T12:19:25.138Z,5332
2017-11-05T12:20:25.805Z,4832
2017-11-05T12:21:24.781Z,4380
2017-11-05T12:22:25.113Z,4132
2017-11-05T12:23:25.161Z,4028
2017-11-05T12:24:25.477Z,4104
2017-11-05T12:25:25.106Z,4240
2017-11-05T12:26:24.758Z,4356
2017-11-05T12:27:25.441Z,4424
2017-11-05T12:28:25.070Z,4380
2017-11-05T12:29:25.449Z,4328
2017-11-05T12:30:25.085Z,4344
2017-11-05T12:31:25.789Z,4384
2017-11-05T12:32:25.405Z,4464
2017-11-05T12:33:24.722Z,4528
2017-11-05T12:34:24.691Z,4584
2017-11-05T12:35:24.711Z,4656
2017-11-05T12:36:25.024Z,4644
2017-11-05T12:37:25.029Z,4592
2017-11-05T12:38:25.024Z,4564
2017-11-05T12:39:25.009Z,4552
2017-11-05T12:40:24.697Z,4548
2017-11-05T12:41:25.319Z,4600
2017-11-05T12:42:24.992Z,4752
2017-11-05T12:43:24.627Z,4964
2017-11-05T12:44:25.350Z,5136
2017-11-05T12:45:24.610Z,5240
2017-11-05T12:46:25.284Z,5268
2017-11-05T12:47:24.608Z,5252
2017-11-05T12:48:25.277Z,5240
2017-11-05T12:49:24.950Z,5216
2017-11-05T12:50:25.301Z,5172
2017-11-05T12:51:24.575Z,5160
2017-11-05T12:52:24.901Z,5208
2017-11-05T12:53:24.896Z,5220
2017-11-05T12:54:24.907Z,5120
2017-11-05T12:55:25.580Z,4960
2017-11-05T12:56:24.883Z,4768
2017-11-05T12:57:24.892Z,4584
2017-11-05T12:58:24.852Z,4404
2017-11-05T12:59:24.527Z,4232
2017-11-05T13:00:25.222Z,4060
2017-11-05T13:01:24.833Z,3876
2017-11-05T13:02:25.519Z,3708
2017-11-05T13:03:25.187Z,3536
2017-11-05T13:04:24.828Z,3380
2017-11-05T13:05:25.163Z,3252
2017-11-05T13:06:24.811Z,3180
2017-11-05T13:07:24.461Z,3132
2017-11-05T13:08:25.154Z,3076
2017-11-05T13:09:24.820Z,3028
2017-11-05T13:10:24.795Z,2924
2017-11-05T13:11:24.436Z,2916
2017-11-05T13:12:24.419Z,2884
2017-11-05T13:13:24.776Z,2872
2017-11-05T13:14:24.772Z,2880
2017-11-05T13:15:24.730Z,2900
2017-11-05T13:16:24.393Z,2900
2017-11-05T13:17:24.762Z,2844
2017-11-05T13:18:24.707Z,2808
2017-11-05T13:19:24.405Z,2780
2017-11-05T13:20:24.703Z,2788
2017-11-05T13:21:24.340Z,2792
2017-11-05T13:22:25.013Z,2748
2017-11-05T13:23:24.341Z,2628
2017-11-05T13:24:25.011Z,2484
2017-11-05T13:25:25.009Z,2384
2017-11-05T13:26:24.653Z,2316
2017-11-05T13:27:24.309Z,2276
2017-11-05T13:28:24.644Z,2276
2017-11-05T13:29:24.650Z,2276
2017-11-05T13:30:24.285Z,2212
2017-11-05T13:31:24.625Z,2092
2017-11-05T13:32:24.648Z,1972
2017-11-05T13:33:24.250Z,1872
2017-11-05T13:34:24.239Z,1760
2017-11-05T13:35:24.246Z,1676
2017-11-05T13:36:25.243Z,1608
2017-11-05T13:37:24.913Z,1568
2017-11-05T13:38:24.602Z,1564
2017-11-05T13:39:24.220Z,1612
2017-11-05T13:40:24.571Z,1664
2017-11-05T13:41:24.877Z,1680
2017-11-05T13:42:24.196Z,1640
2017-11-05T13:43:24.846Z,1584
2017-11-05T13:44:24.511Z,1544
2017-11-05T13:45:24.512Z,1504
2017-11-05T13:46:24.486Z,1460
2017-11-05T13:47:24.469Z,1432
2017-11-05T13:48:24.120Z,1404
2017-11-05T13:49:24.794Z,1384
2017-11-05T13:50:24.460Z,1344
2017-11-05T13:51:24.797Z,1264
2017-11-05T13:52:24.426Z,1196
2017-11-05T13:53:24.776Z,1176
2017-11-05T13:54:24.451Z,1164
2017-11-05T13:55:24.075Z,1156